Time;durP1;ratioP1;P1;durP2;ratioP2;P2;SDS_P1;SDS_P2;PMS_P1;PMS_P2;Temp;Humidity;BMP_temperature;BMP_pressure;BME280_temperature;BME280_humidity;BME280_pressure;Samples;Min_cycle;Max_cycle;Signal;HPM_P1;HPM_P2
2023/01/19 15:20:39;;;;;;;10.88;4.57;;;5.70;99.90;;;;;;5128936;27;20339;-65
2023/01/19 15:23:05;;;;;;;19.90;7.13;;;5.40;99.90;;;;;;5108782;28;20055;-64
2023/01/19 15:25:30;;;;;;;22.35;9.02;;;5.40;99.90;;;;;;5107819;28;20466;-64
2023/01/19 15:33:24;;;;;;;4.25;1.80;;;5.50;99.90;;;;;;5128884;27;20339;-67
2023/01/19 15:35:50;;;;;;;4.75;1.55;;;5.20;99.90;;;;;;5105878;28;20044;-66
2023/01/19 15:38:16;;;;;;;6.78;1.55;;;5.00;99.90;;;;;;5098114;28;20032;-66
2023/01/19 15:40:42;;;;;;;3.45;1.45;;;4.90;99.90;;;;;;5108321;28;20116;-67
2023/01/19 15:43:11;;;;;;;6.78;1.98;;;4.80;99.90;;;;;;5107654;28;20032;-66
2023/01/19 15:45:48;;;;;;;2.92;1.60;;;4.70;99.90;;;;;;5107525;28;20067;-66
2023/01/19 15:48:14;;;;;;;10.98;2.00;;;4.70;99.90;;;;;;5106837;28;20047;-67
2023/01/19 15:50:42;;;;;;;13.23;3.70;;;4.60;99.90;;;;;;5104879;28;20522;-67
2023/01/19 15:53:16;;;;;;;9.68;3.13;;;4.50;99.90;;;;;;5105507;28;20055;-67
2023/01/19 15:55:41;;;;;;;8.60;3.42;;;4.50;99.90;;;;;;5107419;28;20077;-68
2023/01/19 15:58:07;;;;;;;12.25;2.95;;;4.50;99.90;;;;;;5107968;28;20469;-69
2023/01/19 16:00:34;;;;;;;6.22;2.70;;;4.40;99.90;;;;;;5105124;28;20438;-68
2023/01/19 16:03:01;;;;;;;5.28;2.22;;;4.40;99.90;;;;;;5107943;28;20042;-68
2023/01/19 16:05:27;;;;;;;9.27;2.63;;;4.40;99.90;;;;;;5107237;28;20044;-69
2023/01/19 16:07:52;;;;;;;5.63;2.90;;;4.30;99.90;;;;;;5104925;28;20123;-70
2023/01/19 16:10:19;;;;;;;7.75;3.22;;;4.40;99.90;;;;;;5086422;28;20047;-68
2023/01/19 16:12:46;;;;;;;6.55;2.58;;;4.40;99.90;;;;;;5085848;28;20550;-69
2023/01/19 16:15:13;;;;;;;10.80;2.70;;;4.40;99.90;;;;;;5068479;28;20048;-68
2023/01/19 16:17:38;;;;;;;3.33;2.15;;;4.30;99.90;;;;;;5087476;28;20032;-68
2023/01/19 16:20:05;;;;;;;5.18;2.35;;;4.20;99.90;;;;;;5087127;28;20078;-69
2023/01/19 16:22:31;;;;;;;19.98;6.95;;;4.20;99.90;;;;;;5086166;28;20484;-69
2023/01/19 16:24:56;;;;;;;30.52;8.88;;;4.20;99.90;;;;;;5086205;28;20131;-69
2023/01/19 16:27:23;;;;;;;22.70;6.88;;;4.20;99.90;;;;;;5086154;28;20036;-68
2023/01/19 16:29:48;;;;;;;38.10;11.60;;;4.10;99.90;;;;;;5085870;28;20430;-70
2023/01/19 16:32:14;;;;;;;24.88;8.68;;;4.10;99.90;;;;;;5090241;28;20046;-69
2023/01/19 16:34:40;;;;;;;13.95;4.75;;;4.00;99.90;;;;;;5102293;28;20051;-68
2023/01/19 16:37:05;;;;;;;6.13;2.80;;;3.90;99.90;;;;;;5095148;28;20119;-69
2023/01/19 16:39:31;;;;;;;4.20;2.58;;;3.90;99.90;;;;;;5086734;28;20087;-68
2023/01/19 16:41:57;;;;;;;6.13;2.72;;;3.80;99.90;;;;;;5087099;28;20043;-68
2023/01/19 16:44:22;;;;;;;3.25;2.50;;;3.70;99.90;;;;;;5082164;28;20036;-68
2023/01/19 16:46:50;;;;;;;8.40;2.78;;;3.80;99.90;;;;;;5081008;28;20032;-69
2023/01/19 16:49:18;;;;;;;6.20;2.88;;;3.80;99.90;;;;;;5084267;28;20111;-69
2023/01/19 16:51:44;;;;;;;8.07;3.08;;;3.80;99.90;;;;;;5081268;28;20485;-69
2023/01/19 16:54:22;;;;;;;12.48;3.55;;;3.80;99.90;;;;;;5072780;28;20420;-69
2023/01/19 16:56:48;;;;;;;7.88;3.25;;;3.70;99.90;;;;;;5073587;28;20033;-69
2023/01/19 16:59:16;;;;;;;9.52;3.60;;;3.60;99.90;;;;;;5073643;28;20085;-69
2023/01/19 17:01:43;;;;;;;7.70;3.65;;;3.70;99.90;;;;;;5072360;28;20040;-69
2023/01/19 17:04:10;;;;;;;10.20;4.25;;;3.70;99.90;;;;;;5072570;28;20044;-69
2023/01/19 17:06:36;;;;;;;6.93;4.07;;;3.60;99.90;;;;;;5073509;28;20068;-69
2023/01/19 17:09:02;;;;;;;9.38;4.40;;;3.50;99.90;;;;;;5073414;28;20385;-70
2023/01/19 17:11:30;;;;;;;13.10;6.13;;;3.60;99.90;;;;;;5072154;28;20534;-69
2023/01/19 17:13:58;;;;;;;15.07;4.95;;;3.60;99.90;;;;;;5072340;28;20056;-70
2023/01/19 17:16:25;;;;;;;16.77;6.22;;;3.50;99.90;;;;;;5055372;28;20119;-69
2023/01/19 17:18:50;;;;;;;15.52;6.30;;;3.60;99.90;;;;;;5072819;28;20037;-69
2023/01/19 17:21:18;;;;;;;14.55;5.35;;;3.50;99.90;;;;;;5073148;28;20398;-69
2023/01/19 17:23:45;;;;;;;11.00;5.65;;;3.40;99.90;;;;;;5079876;28;20051;-69
2023/01/19 17:26:11;;;;;;;9.48;4.88;;;3.40;99.90;;;;;;5082545;28;20036;-69
2023/01/19 17:28:37;;;;;;;7.90;4.50;;;3.30;99.90;;;;;;5077473;28;20043;-69
2023/01/19 17:31:09;;;;;;;13.35;4.55;;;3.30;99.90;;;;;;5071809;28;20119;-68
2023/01/19 17:33:35;;;;;;;9.00;4.47;;;3.30;99.90;;;;;;5076146;28;20051;-68
2023/01/19 17:36:12;;;;;;;10.52;4.35;;;3.30;99.90;;;;;;5089855;28;20032;-68
2023/01/19 17:38:38;;;;;;;8.95;5.03;;;3.30;99.90;;;;;;5073882;28;20079;-69
2023/01/19 17:41:15;;;;;;;11.82;5.30;;;3.20;99.90;;;;;;5071728;28;20047;-68
2023/01/19 17:43:41;;;;;;;12.57;6.13;;;3.10;99.90;;;;;;5069823;28;20039;-69
2023/01/19 17:46:08;;;;;;;14.55;7.35;;;3.20;99.90;;;;;;5072043;28;20119;-68
2023/01/19 17:48:33;;;;;;;11.63;6.70;;;3.20;99.90;;;;;;5072319;28;20050;-69
2023/01/19 17:51:07;;;;;;;12.15;6.75;;;3.10;99.90;;;;;;5072549;28;20040;-71
2023/01/19 17:53:35;;;;;;;9.65;6.03;;;3.10;99.90;;;;;;5072481;28;20032;-68
2023/01/19 17:56:12;;;;;;;11.68;5.78;;;3.10;99.90;;;;;;5070124;28;20447;-68
2023/01/19 17:58:38;;;;;;;11.98;5.28;;;3.10;99.90;;;;;;5071095;28;20032;-68
2023/01/19 18:01:11;;;;;;;10.82;4.60;;;3.10;99.90;;;;;;5072400;28;20064;-68
2023/01/19 18:03:37;;;;;;;7.10;4.00;;;3.00;99.90;;;;;;5085536;28;20438;-68
2023/01/19 18:06:03;;;;;;;7.13;3.70;;;3.00;99.90;;;;;;5091236;28;20040;-68
2023/01/19 18:08:28;;;;;;;6.88;4.32;;;3.10;99.90;;;;;;5092363;28;20044;-68
2023/01/19 18:10:55;;;;;;;8.80;3.70;;;3.00;99.90;;;;;;5092045;28;20096;-68
2023/01/19 18:13:22;;;;;;;9.13;3.50;;;3.00;99.90;;;;;;5092081;28;20067;-68
2023/01/19 18:15:48;;;;;;;6.50;3.45;;;3.00;99.90;;;;;;5091272;28;20059;-68
2023/01/19 18:18:14;;;;;;;8.15;3.38;;;3.00;99.90;;;;;;5092030;28;20071;-69
2023/01/19 18:20:43;;;;;;;8.10;4.28;;;3.00;99.90;;;;;;5091407;28;20065;-70
2023/01/19 18:23:09;;;;;;;5.20;3.97;;;3.00;99.90;;;;;;5090767;28;20040;-68
2023/01/19 18:25:35;;;;;;;11.18;4.38;;;3.00;99.90;;;;;;5091107;28;20494;-69
2023/01/19 18:28:00;;;;;;;11.02;5.05;;;3.00;99.90;;;;;;5090399;28;20036;-68
2023/01/19 18:30:26;;;;;;;12.35;5.57;;;3.00;99.90;;;;;;5090572;28;20551;-69
2023/01/19 18:32:51;;;;;;;10.23;4.70;;;2.90;99.90;;;;;;5091187;28;20032;-69
2023/01/19 18:35:17;;;;;;;13.65;4.80;;;3.00;99.90;;;;;;5089790;28;20474;-68
2023/01/19 18:37:43;;;;;;;12.90;4.35;;;3.00;99.90;;;;;;5077365;28;20040;-69
2023/01/19 18:40:10;;;;;;;10.75;4.25;;;3.00;99.90;;;;;;5088997;28;20066;-68
2023/01/19 18:42:35;;;;;;;7.68;4.30;;;3.00;99.90;;;;;;5091872;28;20054;-68
2023/01/19 18:45:01;;;;;;;9.93;4.18;;;3.00;99.90;;;;;;5090706;28;20043;-69
2023/01/19 18:47:27;;;;;;;8.45;3.90;;;2.90;99.90;;;;;;5089788;28;20040;-69
2023/01/19 18:49:53;;;;;;;7.03;3.92;;;2.90;99.90;;;;;;5091241;28;20119;-69
2023/01/19 18:52:19;;;;;;;6.07;3.50;;;2.90;99.90;;;;;;5091483;28;20044;-68
2023/01/19 18:54:47;;;;;;;6.18;3.45;;;2.90;99.90;;;;;;5089211;28;20043;-68
2023/01/19 18:57:13;;;;;;;6.90;3.67;;;2.90;99.90;;;;;;5091251;28;20485;-69
2023/01/19 18:59:41;;;;;;;11.23;3.70;;;2.90;99.90;;;;;;5090070;28;20119;-68
2023/01/19 19:02:09;;;;;;;7.07;3.60;;;2.90;99.90;;;;;;5091031;28;20529;-69
2023/01/19 19:04:34;;;;;;;9.57;4.53;;;2.90;99.90;;;;;;5090613;28;20610;-69
2023/01/19 19:07:00;;;;;;;15.88;3.45;;;2.90;99.90;;;;;;5088954;28;20048;-69
2023/01/19 19:09:26;;;;;;;7.78;3.22;;;3.00;99.90;;;;;;5091061;28;20440;-69
2023/01/19 19:11:51;;;;;;;4.90;3.65;;;3.00;99.90;;;;;;5090946;28;20036;-69
2023/01/19 19:14:18;;;;;;;14.25;3.63;;;3.00;99.90;;;;;;5089397;28;20396;-68
2023/01/19 19:16:43;;;;;;;6.18;3.42;;;3.00;99.90;;;;;;5090820;28;20036;-68
2023/01/19 19:19:11;;;;;;;7.03;3.30;;;3.00;99.90;;;;;;5089712;28;20042;-69
2023/01/19 19:21:37;;;;;;;9.85;3.88;;;2.90;99.90;;;;;;5091166;28;20523;-69
2023/01/19 19:24:03;;;;;;;7.57;3.90;;;2.90;99.90;;;;;;5090007;28;20040;-69
2023/01/19 19:26:28;;;;;;;14.65;4.85;;;2.90;99.90;;;;;;5088887;28;20389;-69
2023/01/19 19:28:54;;;;;;;20.42;8.20;;;2.90;99.90;;;;;;5091007;28;20706;-69
2023/01/19 19:31:21;;;;;;;11.35;4.78;;;2.80;99.90;;;;;;5090403;28;20040;-68
2023/01/19 19:33:48;;;;;;;8.75;4.18;;;2.80;99.90;;;;;;5089158;28;20070;-69
2023/01/19 19:36:14;;;;;;;5.57;2.88;;;2.80;99.90;;;;;;5089849;28;20028;-68
2023/01/19 19:38:43;;;;;;;4.95;2.63;;;2.80;99.90;;;;;;5077000;28;20271;-69
2023/01/19 19:41:13;;;;;;;4.88;2.78;;;2.80;99.90;;;;;;5090416;28;20044;-69
2023/01/19 19:43:38;;;;;;;4.63;2.33;;;2.70;99.90;;;;;;5090429;28;20648;-69
2023/01/19 19:46:07;;;;;;;3.92;2.28;;;2.80;99.90;;;;;;5088916;28;20173;-68
2023/01/19 19:48:33;;;;;;;3.38;2.17;;;2.70;99.90;;;;;;5090655;28;20055;-68
2023/01/19 19:51:12;;;;;;;6.75;2.50;;;2.70;99.90;;;;;;5090522;28;20047;-68
2023/01/19 19:53:38;;;;;;;3.80;2.47;;;2.70;99.90;;;;;;5090210;28;20043;-68
2023/01/19 19:56:08;;;;;;;3.83;2.40;;;2.60;99.90;;;;;;5088555;28;20040;-69
2023/01/19 19:58:34;;;;;;;5.40;3.17;;;2.60;99.90;;;;;;5088942;28;20047;-69
2023/01/19 20:01:05;;;;;;;5.38;2.90;;;2.60;99.90;;;;;;5090504;28;20123;-69
2023/01/19 20:03:31;;;;;;;3.90;2.28;;;2.60;99.90;;;;;;5090304;28;20088;-69
2023/01/19 20:06:08;;;;;;;3.63;2.53;;;2.60;99.90;;;;;;5089559;28;20169;-68
2023/01/19 20:08:34;;;;;;;7.43;2.88;;;2.60;99.90;;;;;;5089337;28;20408;-69
2023/01/19 20:11:07;;;;;;;7.10;3.60;;;2.60;99.90;;;;;;5090705;28;20040;-69
2023/01/19 20:13:35;;;;;;;7.35;3.63;;;2.60;99.90;;;;;;5090361;28;20043;-69
2023/01/19 20:16:02;;;;;;;9.02;4.00;;;2.60;99.90;;;;;;5089681;28;20048;-68
2023/01/19 20:18:29;;;;;;;8.60;4.20;;;2.60;99.90;;;;;;5089701;28;20067;-69
2023/01/19 20:20:55;;;;;;;6.85;3.95;;;2.60;99.90;;;;;;5094462;28;20040;-68
2023/01/19 20:23:21;;;;;;;4.45;2.80;;;2.70;99.90;;;;;;5093344;28;20492;-69
2023/01/19 20:25:47;;;;;;;4.88;2.80;;;2.70;99.90;;;;;;5093361;28;20034;-68
2023/01/19 20:28:12;;;;;;;6.80;2.83;;;2.80;99.90;;;;;;5094255;28;20032;-69
2023/01/19 20:30:38;;;;;;;3.03;2.30;;;2.70;99.90;;;;;;5094076;28;20063;-68
2023/01/19 20:33:03;;;;;;;9.50;3.20;;;2.70;99.90;;;;;;5093547;28;20101;-69
2023/01/19 20:35:29;;;;;;;4.07;2.65;;;2.70;99.90;;;;;;5091754;28;20051;-68
2023/01/19 20:37:54;;;;;;;6.97;3.72;;;2.60;99.90;;;;;;5079496;28;20098;-69
2023/01/19 20:40:20;;;;;;;5.78;2.92;;;2.50;99.90;;;;;;5094257;28;20032;-69
2023/01/19 20:42:45;;;;;;;9.35;3.05;;;2.40;99.90;;;;;;5092604;28;20432;-69
2023/01/19 20:45:11;;;;;;;6.63;3.25;;;2.30;99.90;;;;;;5092115;28;20036;-69
2023/01/19 20:47:37;;;;;;;7.22;3.30;;;2.30;99.90;;;;;;5093983;28;20093;-68
2023/01/19 20:50:05;;;;;;;4.70;3.10;;;2.30;99.90;;;;;;5092385;28;20040;-69
2023/01/19 20:52:32;;;;;;;13.45;6.10;;;2.30;99.90;;;;;;5093710;28;20058;-69
2023/01/19 20:54:58;;;;;;;18.95;8.02;;;2.30;99.90;;;;;;5092818;28;20082;-68
2023/01/19 20:57:24;;;;;;;16.40;6.55;;;2.30;99.90;;;;;;5093084;28;20048;-68
2023/01/19 20:59:49;;;;;;;9.50;5.35;;;2.30;99.90;;;;;;5092400;28;20040;-68
2023/01/19 21:02:15;;;;;;;9.30;4.45;;;2.30;99.90;;;;;;5093398;28;20046;-69
2023/01/19 21:04:41;;;;;;;6.75;3.22;;;2.30;99.90;;;;;;5092623;28;20036;-69
2023/01/19 21:07:07;;;;;;;4.22;3.30;;;2.30;99.90;;;;;;5093236;28;20423;-69
2023/01/19 21:09:34;;;;;;;6.47;2.72;;;2.20;99.90;;;;;;5092350;28;20082;-69
2023/01/19 21:12:00;;;;;;;7.20;3.85;;;2.10;99.90;;;;;;5092517;28;20107;-68
2023/01/19 21:14:25;;;;;;;3.90;3.30;;;2.20;99.90;;;;;;5092604;28;20504;-69
2023/01/19 21:16:51;;;;;;;4.40;3.22;;;2.20;99.90;;;;;;5091507;28;20135;-69
2023/01/19 21:19:17;;;;;;;5.88;3.20;;;2.10;99.90;;;;;;5091693;28;20173;-69
2023/01/19 21:21:42;;;;;;;8.93;5.38;;;2.00;99.90;;;;;;5093009;28;20043;-68
2023/01/19 21:24:09;;;;;;;7.35;5.28;;;2.00;99.90;;;;;;5092006;28;20062;-69
2023/01/19 21:26:36;;;;;;;8.77;4.70;;;2.00;99.90;;;;;;5093030;28;20396;-69
2023/01/19 21:29:02;;;;;;;9.27;4.95;;;2.00;99.90;;;;;;5092397;28;20580;-69
2023/01/19 21:31:29;;;;;;;8.57;4.50;;;1.90;99.90;;;;;;5091180;28;20044;-68
2023/01/19 21:33:55;;;;;;;7.57;4.68;;;2.00;99.90;;;;;;5092202;28;20039;-68
2023/01/19 21:36:22;;;;;;;5.75;4.60;;;2.00;99.90;;;;;;5089727;28;20039;-69
2023/01/19 21:38:50;;;;;;;8.98;5.03;;;1.90;99.90;;;;;;5079583;28;20031;-69
2023/01/19 21:41:16;;;;;;;13.27;5.13;;;1.80;99.90;;;;;;5091335;28;20117;-68
2023/01/19 21:43:42;;;;;;;7.82;4.53;;;1.70;99.90;;;;;;5091595;28;20039;-69
2023/01/19 21:46:09;;;;;;;6.82;4.60;;;1.70;99.90;;;;;;5092137;28;20063;-68
2023/01/19 21:48:35;;;;;;;4.82;3.55;;;1.70;99.90;;;;;;5090865;28;20052;-69
2023/01/19 21:51:00;;;;;;;8.70;3.95;;;1.80;99.90;;;;;;5091831;28;20139;-69
2023/01/19 21:53:26;;;;;;;7.63;4.25;;;1.80;99.90;;;;;;5092231;28;20040;-68
2023/01/19 21:55:52;;;;;;;5.97;3.90;;;1.80;99.90;;;;;;5091277;28;20063;-68
2023/01/19 21:58:17;;;;;;;5.20;3.88;;;1.70;99.90;;;;;;5092342;28;20134;-68
2023/01/19 22:00:43;;;;;;;4.85;3.95;;;1.70;99.90;;;;;;5078163;28;20686;-68
2023/01/19 22:03:09;;;;;;;6.10;3.70;;;1.70;99.90;;;;;;5071825;28;20079;-68
2023/01/19 22:05:35;;;;;;;6.32;3.78;;;1.70;99.90;;;;;;5071004;28;20079;-68
2023/01/19 22:08:01;;;;;;;5.13;4.18;;;1.60;99.90;;;;;;5071384;28;20530;-68
2023/01/19 22:10:27;;;;;;;6.88;4.10;;;1.60;99.90;;;;;;5074136;28;20060;-68
2023/01/19 22:12:52;;;;;;;7.90;3.78;;;1.60;99.90;;;;;;5076392;28;20514;-68
2023/01/19 22:15:18;;;;;;;9.32;3.53;;;1.60;99.90;;;;;;5076404;28;20047;-68
2023/01/19 22:17:43;;;;;;;7.72;3.88;;;1.60;99.90;;;;;;5069270;28;20598;-68
2023/01/19 22:20:09;;;;;;;9.70;3.80;;;1.60;99.90;;;;;;5071159;28;20401;-68
2023/01/19 22:22:35;;;;;;;9.23;3.92;;;1.60;99.90;;;;;;5075590;28;20097;-68
2023/01/19 22:25:01;;;;;;;9.75;4.18;;;1.60;99.90;;;;;;5070381;28;20511;-69
2023/01/19 22:27:27;;;;;;;4.53;3.83;;;1.60;99.90;;;;;;5071207;28;20040;-68
2023/01/19 22:29:52;;;;;;;4.78;3.95;;;1.70;99.90;;;;;;5071066;28;20037;-68
2023/01/19 22:32:18;;;;;;;9.20;4.05;;;1.70;99.90;;;;;;5071075;28;20528;-68
2023/01/19 22:34:44;;;;;;;5.90;3.67;;;1.70;99.90;;;;;;5070653;28;20041;-69
2023/01/19 22:37:09;;;;;;;11.13;4.78;;;1.70;99.90;;;;;;5071476;28;20046;-68
2023/01/19 22:39:35;;;;;;;6.60;3.58;;;1.70;99.90;;;;;;5085727;28;20040;-68
2023/01/19 22:42:00;;;;;;;5.20;3.88;;;1.80;99.90;;;;;;5072326;28;20130;-68
2023/01/19 22:44:26;;;;;;;9.40;3.90;;;1.80;99.90;;;;;;5091082;28;20508;-68
2023/01/19 22:46:54;;;;;;;6.15;3.38;;;1.70;99.90;;;;;;5091494;28;20036;-68
2023/01/19 22:49:19;;;;;;;8.32;3.85;;;1.70;99.90;;;;;;5091656;28;20036;-68
2023/01/19 22:51:45;;;;;;;8.32;3.88;;;1.70;99.90;;;;;;5091634;28;20039;-68
2023/01/19 22:54:11;;;;;;;7.45;4.53;;;1.70;99.90;;;;;;5090714;28;20044;-68
2023/01/19 22:56:38;;;;;;;4.28;3.63;;;1.60;99.90;;;;;;5091673;28;20036;-68
2023/01/19 22:59:05;;;;;;;7.15;4.10;;;1.60;99.90;;;;;;5091536;28;20036;-68
2023/01/19 23:01:32;;;;;;;5.65;4.10;;;1.60;99.90;;;;;;5090149;28;20071;-68
2023/01/19 23:03:58;;;;;;;8.63;3.88;;;1.50;99.90;;;;;;5090560;28;20048;-68
2023/01/19 23:06:30;;;;;;;5.70;4.13;;;1.50;99.90;;;;;;5091301;28;20044;-69
2023/01/19 23:08:58;;;;;;;7.15;4.05;;;1.50;99.90;;;;;;5091227;28;20123;-68
2023/01/19 23:11:28;;;;;;;7.55;4.05;;;1.50;99.90;;;;;;5091421;28;20464;-68
2023/01/19 23:13:54;;;;;;;8.77;4.50;;;1.30;99.90;;;;;;5089207;28;20133;-68
2023/01/19 23:16:20;;;;;;;9.95;4.43;;;1.40;99.90;;;;;;5091134;28;20503;-68
2023/01/19 23:18:46;;;;;;;13.18;4.60;;;1.40;99.90;;;;;;5091244;28;20040;-68
2023/01/19 23:21:17;;;;;;;9.25;4.95;;;1.40;99.90;;;;;;5091164;28;20054;-68
2023/01/19 23:23:44;;;;;;;7.00;5.10;;;1.40;99.90;;;;;;5090558;28;20495;-68
2023/01/19 23:26:11;;;;;;;8.85;4.72;;;1.30;99.90;;;;;;5091132;28;20115;-68
2023/01/19 23:28:38;;;;;;;8.60;4.78;;;1.40;99.90;;;;;;5091315;28;20040;-68
2023/01/19 23:31:15;;;;;;;6.63;4.25;;;1.30;99.90;;;;;;5090791;28;20044;-68
2023/01/19 23:33:42;;;;;;;5.80;4.15;;;1.30;99.90;;;;;;5089622;28;20055;-68
2023/01/19 23:36:09;;;;;;;8.80;4.25;;;1.30;99.90;;;;;;5090425;28;20036;-68
2023/01/19 23:38:34;;;;;;;6.82;4.85;;;1.30;99.90;;;;;;5091143;28;20036;-68
2023/01/19 23:41:00;;;;;;;7.75;4.55;;;1.30;99.90;;;;;;5091048;28;20128;-69
2023/01/19 23:43:25;;;;;;;8.65;4.38;;;1.50;99.90;;;;;;5091077;28;20032;-69
2023/01/19 23:45:51;;;;;;;8.30;4.78;;;1.40;99.90;;;;;;5088750;28;20036;-68
2023/01/19 23:48:17;;;;;;;7.15;4.88;;;1.50;99.90;;;;;;5089760;28;20484;-68
2023/01/19 23:50:42;;;;;;;9.95;4.53;;;1.40;99.90;;;;;;5090929;28;20032;-68
2023/01/19 23:53:08;;;;;;;7.88;4.40;;;1.40;99.90;;;;;;5091920;28;20040;-67
2023/01/19 23:55:33;;;;;;;5.93;4.47;;;1.50;99.90;;;;;;5092791;28;20047;-68
2023/01/19 23:57:59;;;;;;;5.72;4.38;;;1.50;99.90;;;;;;5095073;28;20032;-69
